createdAt,value
2018-08-08T00:00:16.257Z,41.88
2018-08-08T00:01:16.262Z,40.91
2018-08-08T00:02:16.263Z,41.10
2018-08-08T00:03:16.267Z,41.00
2018-08-08T00:04:16.273Z,41.00
2018-08-08T00:05:16.279Z,41.00
2018-08-08T00:06:16.284Z,41.00
2018-08-08T00:07:16.290Z,41.20
2018-08-08T00:08:16.297Z,40.71
2018-08-08T00:09:16.298Z,41.20
2018-08-08T00:10:16.308Z,40.61
2018-08-08T00:11:16.312Z,42.07
2018-08-08T00:12:16.313Z,41.00
2018-08-08T00:13:16.321Z,41.00
2018-08-08T00:14:16.325Z,42.07
2018-08-08T00:15:16.330Z,41.39
2018-08-08T00:16:16.345Z,41.20
2018-08-08T00:17:16.340Z,41.49
2018-08-08T00:18:16.347Z,41.68
2018-08-08T00:19:16.350Z,41.78
2018-08-08T00:20:16.353Z,41.88
2018-08-08T00:21:16.359Z,41.68
2018-08-08T00:22:16.364Z,41.78
2018-08-08T00:23:16.373Z,42.36
2018-08-08T00:24:16.398Z,41.97
2018-08-08T00:25:18.989Z,41.88
2018-08-08T00:26:16.387Z,41.78
2018-08-08T00:27:16.497Z,42.07
2018-08-08T00:28:16.393Z,42.46
2018-08-08T00:29:16.400Z,41.97
2018-08-08T00:30:16.446Z,42.55
2018-08-08T00:31:16.417Z,43.04
2018-08-08T00:32:16.545Z,43.23
2018-08-08T00:33:16.418Z,42.82
2018-08-08T00:34:16.477Z,42.72
2018-08-08T00:35:16.455Z,42.54
2018-08-08T00:36:16.691Z,42.92
2018-08-08T00:37:16.439Z,42.44
2018-08-08T00:38:16.443Z,43.12
2018-08-08T00:39:16.519Z,43.21
2018-08-08T00:40:16.491Z,43.12
2018-08-08T00:41:16.461Z,43.41
2018-08-08T00:42:16.461Z,43.12
2018-08-08T00:43:16.468Z,43.02
2018-08-08T00:44:16.473Z,43.31
2018-08-08T00:45:16.475Z,43.12
2018-08-08T00:46:16.482Z,43.02
2018-08-08T00:47:16.487Z,43.21
2018-08-08T00:48:16.493Z,43.31
2018-08-08T00:49:16.498Z,43.89
2018-08-08T00:50:16.500Z,44.09
2018-08-08T00:51:16.506Z,43.87
2018-08-08T00:52:16.509Z,43.99
2018-08-08T00:53:16.514Z,44.27
2018-08-08T00:54:16.521Z,43.68
2018-08-08T00:55:16.547Z,44.26
2018-08-08T00:56:16.529Z,44.16
2018-08-08T00:57:16.532Z,44.54
2018-08-08T00:58:16.537Z,44.26
2018-08-08T00:59:16.542Z,44.16
2018-08-08T01:00:16.548Z,44.26
2018-08-08T01:01:16.549Z,44.84
2018-08-08T01:02:16.554Z,44.54
2018-08-08T01:03:16.559Z,44.93
2018-08-08T01:04:16.565Z,45.71
2018-08-08T01:05:16.570Z,45.03
2018-08-08T01:06:16.577Z,44.84
2018-08-08T01:07:16.579Z,44.84
2018-08-08T01:08:16.648Z,45.71
2018-08-08T01:09:16.587Z,45.51
2018-08-08T01:10:16.595Z,46.00
2018-08-08T01:11:16.597Z,45.49
2018-08-08T01:12:16.601Z,46.17
2018-08-08T01:13:16.606Z,45.78
2018-08-08T01:14:16.615Z,45.68
2018-08-08T01:15:16.616Z,46.94
2018-08-08T01:16:16.620Z,45.59
2018-08-08T01:17:16.622Z,46.75
2018-08-08T01:18:16.629Z,46.94
2018-08-08T01:19:16.634Z,46.17
2018-08-08T01:20:16.640Z,46.26
2018-08-08T01:21:16.646Z,46.56
2018-08-08T01:22:16.646Z,46.94
2018-08-08T01:23:16.652Z,47.04
2018-08-08T01:24:16.655Z,46.83
2018-08-08T01:25:16.660Z,47.14
2018-08-08T01:26:16.664Z,47.02
2018-08-08T01:27:16.669Z,46.73
2018-08-08T01:28:16.674Z,46.83
2018-08-08T01:29:16.678Z,46.84
2018-08-08T01:30:16.682Z,47.02
2018-08-08T01:31:16.689Z,47.21
2018-08-08T01:32:16.690Z,46.73
2018-08-08T01:33:16.697Z,47.41
2018-08-08T01:34:16.700Z,46.83
2018-08-08T01:35:16.707Z,47.11
2018-08-08T01:36:16.714Z,47.99
2018-08-08T01:37:16.718Z,47.11
2018-08-08T01:38:16.719Z,47.02
2018-08-08T01:39:16.722Z,47.69
2018-08-08T01:40:16.726Z,47.60
2018-08-08T01:41:16.734Z,47.50
2018-08-08T01:42:16.742Z,47.50
2018-08-08T01:43:16.742Z,47.21
2018-08-08T01:44:16.747Z,47.21
2018-08-08T01:45:16.751Z,48.27
2018-08-08T01:46:16.758Z,47.31
2018-08-08T01:47:16.761Z,47.60
2018-08-08T01:48:16.764Z,47.50
2018-08-08T01:49:16.768Z,47.31
2018-08-08T01:50:16.773Z,48.18
2018-08-08T01:51:16.778Z,48.37
2018-08-08T01:52:16.780Z,47.50
2018-08-08T01:53:16.789Z,48.37
2018-08-08T01:54:16.790Z,47.50
2018-08-08T01:55:16.796Z,47.41
2018-08-08T01:56:16.800Z,47.31
2018-08-08T01:57:16.809Z,47.99
2018-08-08T01:58:16.807Z,47.02
2018-08-08T01:59:16.814Z,48.27
2018-08-08T02:00:16.821Z,47.60
2018-08-08T02:01:16.821Z,47.31
2018-08-08T02:02:16.822Z,47.31
2018-08-08T02:03:16.829Z,47.21
2018-08-08T02:04:16.833Z,46.92
2018-08-08T02:05:16.849Z,47.11
2018-08-08T02:06:16.841Z,46.92
2018-08-08T02:07:16.846Z,46.92
2018-08-08T02:08:16.852Z,46.84
2018-08-08T02:09:16.855Z,47.04
2018-08-08T02:10:16.860Z,47.02
2018-08-08T02:11:16.862Z,46.92
2018-08-08T02:12:16.867Z,47.31
2018-08-08T02:13:16.874Z,47.31
2018-08-08T02:14:16.876Z,47.60
2018-08-08T02:15:16.881Z,47.11
2018-08-08T02:16:16.887Z,46.94
2018-08-08T02:17:16.887Z,46.83
2018-08-08T02:18:16.896Z,46.92
2018-08-08T02:19:16.898Z,47.04
2018-08-08T02:20:16.903Z,46.63
2018-08-08T02:21:16.913Z,46.66
2018-08-08T02:22:16.911Z,47.04
2018-08-08T02:23:16.915Z,46.36
2018-08-08T02:24:16.919Z,46.75
2018-08-08T02:25:16.924Z,46.84
2018-08-08T02:26:16.929Z,46.63
2018-08-08T02:27:16.928Z,46.46
2018-08-08T02:28:16.936Z,46.26
2018-08-08T02:29:16.940Z,46.84
2018-08-08T02:30:16.946Z,46.17
2018-08-08T02:31:16.951Z,46.94
2018-08-08T02:32:16.959Z,45.59
2018-08-08T02:33:16.963Z,46.26
2018-08-08T02:34:16.967Z,46.26
2018-08-08T02:35:16.977Z,45.76
2018-08-08T02:36:16.973Z,46.08
2018-08-08T02:37:17.010Z,46.66
2018-08-08T02:38:16.987Z,46.44
2018-08-08T02:39:16.984Z,46.75
2018-08-08T02:40:16.990Z,46.36
2018-08-08T02:41:16.995Z,46.17
2018-08-08T02:42:17.011Z,46.75
2018-08-08T02:43:17.018Z,46.83
2018-08-08T02:44:17.006Z,45.66
2018-08-08T02:45:17.013Z,46.05
2018-08-08T02:46:17.017Z,46.26
2018-08-08T02:47:17.021Z,46.36
2018-08-08T02:48:17.023Z,46.36
2018-08-08T02:49:17.029Z,46.08
2018-08-08T02:50:17.033Z,46.17
2018-08-08T02:51:17.037Z,45.68
2018-08-08T02:52:17.040Z,45.59
2018-08-08T02:53:17.045Z,45.98
2018-08-08T02:54:17.050Z,46.36
2018-08-08T02:55:17.059Z,46.17
2018-08-08T02:56:17.056Z,46.84
2018-08-08T02:57:17.067Z,47.04
2018-08-08T02:58:17.068Z,46.25
2018-08-08T02:59:17.075Z,46.92
2018-08-08T03:00:17.083Z,46.44
2018-08-08T03:01:17.080Z,46.44
2018-08-08T03:02:17.083Z,46.63
2018-08-08T03:03:17.093Z,46.73
2018-08-08T03:04:17.093Z,46.53
2018-08-08T03:05:17.101Z,46.83
2018-08-08T03:06:17.103Z,46.83
2018-08-08T03:07:17.107Z,47.02
2018-08-08T03:08:17.143Z,46.92
2018-08-08T03:09:17.116Z,46.63
2018-08-08T03:10:17.118Z,46.53
2018-08-08T03:11:17.123Z,46.63
2018-08-08T03:12:17.130Z,46.73
2018-08-08T03:13:17.130Z,46.83
2018-08-08T03:14:17.135Z,46.83
2018-08-08T03:15:17.144Z,46.92
2018-08-08T03:16:17.142Z,47.02
2018-08-08T03:17:17.148Z,47.11
2018-08-08T03:18:17.191Z,46.73
2018-08-08T03:19:17.158Z,47.31
2018-08-08T03:20:17.157Z,47.31
2018-08-08T03:21:17.164Z,47.11
2018-08-08T03:22:17.168Z,47.11
2018-08-08T03:23:17.173Z,46.53
2018-08-08T03:24:17.173Z,47.21
2018-08-08T03:25:17.186Z,46.92
2018-08-08T03:26:17.219Z,46.83
2018-08-08T03:27:17.196Z,47.02
2018-08-08T03:28:17.195Z,47.31
2018-08-08T03:29:17.205Z,47.11
2018-08-08T03:30:17.201Z,47.79
2018-08-08T03:31:17.212Z,47.41
2018-08-08T03:32:17.212Z,48.27
2018-08-08T03:33:17.221Z,48.37
2018-08-08T03:34:17.220Z,48.35
2018-08-08T03:35:17.226Z,48.54
2018-08-08T03:36:17.234Z,48.27
2018-08-08T03:37:17.237Z,48.25
2018-08-08T03:38:17.245Z,48.35
2018-08-08T03:39:17.240Z,48.06
2018-08-08T03:40:17.240Z,48.35
2018-08-08T03:41:17.249Z,48.35
2018-08-08T03:42:17.289Z,48.35
2018-08-08T03:43:17.266Z,48.06
2018-08-08T03:44:17.266Z,48.35
2018-08-08T03:45:17.266Z,48.83
2018-08-08T03:46:17.281Z,48.64
2018-08-08T03:47:17.273Z,48.25
2018-08-08T03:48:17.275Z,49.02
2018-08-08T03:49:18.952Z,48.74
2018-08-08T03:50:17.288Z,49.32
2018-08-08T03:51:19.947Z,49.60
2018-08-08T03:52:17.301Z,49.02
2018-08-08T03:53:17.361Z,49.41
2018-08-08T03:54:17.303Z,49.80
2018-08-08T03:55:17.307Z,49.22
2018-08-08T03:56:17.311Z,49.41
2018-08-08T03:57:17.311Z,49.51
2018-08-08T03:58:17.316Z,49.12
2018-08-08T03:59:17.319Z,49.90
2018-08-08T04:00:17.328Z,49.22
2018-08-08T04:01:17.330Z,49.22
2018-08-08T04:02:17.354Z,49.90
2018-08-08T04:03:17.341Z,50.28
2018-08-08T04:04:17.341Z,49.12
2018-08-08T04:05:17.355Z,49.02
2018-08-08T04:06:17.352Z,49.02
2018-08-08T04:07:17.353Z,49.12
2018-08-08T04:08:17.357Z,49.22
2018-08-08T04:09:17.382Z,49.22
2018-08-08T04:10:17.377Z,48.83
2018-08-08T04:11:17.374Z,48.54
2018-08-08T04:12:17.887Z,49.02
2018-08-08T04:13:17.383Z,48.64
2018-08-08T04:14:17.391Z,49.41
2018-08-08T04:15:17.888Z,48.64
2018-08-08T04:16:17.397Z,49.80
2018-08-08T04:17:17.461Z,49.90
2018-08-08T04:18:17.396Z,49.51
2018-08-08T04:19:17.399Z,49.22
2018-08-08T04:20:17.425Z,48.64
2018-08-08T04:21:17.408Z,49.80
2018-08-08T04:22:18.967Z,49.22
2018-08-08T04:23:17.429Z,49.99
2018-08-08T04:24:17.441Z,48.64
2018-08-08T04:25:17.429Z,48.95
2018-08-08T04:26:17.435Z,49.24
2018-08-08T04:27:17.439Z,50.02
2018-08-08T04:28:17.439Z,49.24
2018-08-08T04:29:17.449Z,49.15
2018-08-08T04:30:17.445Z,49.05
2018-08-08T04:31:17.972Z,49.05
2018-08-08T04:32:17.549Z,49.34
2018-08-08T04:33:17.465Z,49.82
2018-08-08T04:34:17.466Z,49.24
2018-08-08T04:35:17.470Z,50.21
2018-08-08T04:36:17.471Z,50.31
2018-08-08T04:37:17.475Z,49.34
2018-08-08T04:38:17.481Z,49.34
2018-08-08T04:39:17.484Z,49.05
2018-08-08T04:40:17.496Z,49.82
2018-08-08T04:41:17.496Z,49.54
2018-08-08T04:42:17.507Z,49.82
2018-08-08T04:43:17.504Z,50.40
2018-08-08T04:44:17.506Z,49.54
2018-08-08T04:45:17.509Z,48.66
2018-08-08T04:46:17.512Z,50.02
2018-08-08T04:47:17.517Z,49.17
2018-08-08T04:48:17.523Z,48.52
2018-08-08T04:49:17.528Z,48.32
2018-08-08T04:50:17.610Z,48.01
2018-08-08T04:51:17.565Z,48.30
2018-08-08T04:52:17.547Z,47.36
2018-08-08T04:53:17.547Z,46.89
2018-08-08T04:54:17.559Z,46.99
2018-08-08T04:55:17.556Z,45.47
2018-08-08T04:56:17.584Z,44.90
2018-08-08T04:57:17.625Z,44.17
2018-08-08T04:58:17.576Z,43.88
2018-08-08T04:59:17.575Z,42.25
2018-08-08T05:00:17.699Z,41.88
2018-08-08T05:01:17.583Z,41.96
2018-08-08T05:02:17.612Z,42.61
2018-08-08T05:03:17.598Z,43.86
2018-08-08T05:04:17.600Z,42.81
2018-08-08T05:05:17.610Z,42.18
2018-08-08T05:06:17.631Z,40.83
2018-08-08T05:07:17.619Z,40.08
2018-08-08T05:08:17.625Z,39.31
2018-08-08T05:09:17.623Z,38.95
2018-08-08T05:10:17.628Z,38.96
2018-08-08T05:11:17.634Z,38.34
2018-08-08T05:12:17.645Z,39.20
2018-08-08T05:13:17.647Z,39.80
2018-08-08T05:14:17.657Z,38.75
2018-08-08T05:15:17.652Z,38.10
2018-08-08T05:16:17.668Z,38.09
2018-08-08T05:17:17.663Z,38.28
2018-08-08T05:18:17.666Z,38.65
2018-08-08T05:19:17.672Z,39.14
2018-08-08T05:20:17.772Z,38.67
2018-08-08T05:21:17.678Z,38.75
2018-08-08T05:22:17.691Z,40.29
2018-08-08T05:23:17.695Z,41.24
2018-08-08T05:24:17.695Z,41.80
2018-08-08T05:25:17.710Z,42.18
2018-08-08T05:26:17.704Z,41.46
2018-08-08T05:27:17.718Z,39.84
2018-08-08T05:28:17.721Z,38.89
2018-08-08T05:29:17.733Z,37.93
2018-08-08T05:30:17.736Z,36.98
2018-08-08T05:31:17.740Z,37.93
2018-08-08T05:32:17.749Z,37.85
2018-08-08T05:33:17.747Z,36.78
2018-08-08T05:34:17.754Z,36.98
2018-08-08T05:35:17.758Z,37.83
2018-08-08T05:36:17.784Z,38.59
2018-08-08T05:37:17.771Z,39.36
2018-08-08T05:38:17.777Z,37.75
2018-08-08T05:39:17.786Z,37.19
2018-08-08T05:40:17.790Z,35.66
2018-08-08T05:41:17.795Z,34.21
2018-08-08T05:42:17.805Z,33.82
2018-08-08T05:43:17.809Z,33.45
2018-08-08T05:44:17.819Z,33.17
2018-08-08T05:45:17.823Z,33.56
2018-08-08T05:46:17.833Z,34.06
2018-08-08T05:47:17.834Z,32.45
2018-08-08T05:48:17.845Z,33.98
2018-08-08T05:49:17.877Z,34.47
2018-08-08T05:50:17.853Z,34.48
2018-08-08T05:51:17.873Z,34.29
2018-08-08T05:52:17.866Z,33.64
2018-08-08T05:53:17.880Z,32.79
2018-08-08T05:54:17.881Z,32.58
2018-08-08T05:55:17.891Z,33.84
2018-08-08T05:56:17.892Z,33.72
2018-08-08T05:57:17.902Z,34.88
2018-08-08T05:58:17.911Z,34.58
2018-08-08T05:59:17.912Z,34.72
2018-08-08T06:00:17.926Z,33.79
2018-08-08T06:01:17.930Z,33.29
2018-08-08T06:02:17.940Z,33.56
2018-08-08T06:03:17.975Z,35.30
2018-08-08T06:04:17.951Z,36.46
2018-08-08T06:05:17.958Z,35.48
2018-08-08T06:06:17.966Z,34.41
2018-08-08T06:07:17.974Z,33.64
2018-08-08T06:08:17.978Z,33.64
2018-08-08T06:09:17.987Z,33.05
2018-08-08T06:10:17.994Z,33.64
2018-08-08T06:11:18.003Z,34.11
2018-08-08T06:12:18.014Z,35.28
2018-08-08T06:13:18.016Z,33.65
2018-08-08T06:14:18.052Z,33.00
2018-08-08T06:15:18.031Z,31.45
2018-08-08T06:16:18.039Z,31.45
2018-08-08T06:17:18.095Z,32.97
2018-08-08T06:18:18.110Z,33.74
2018-08-08T06:19:18.063Z,35.28
2018-08-08T06:20:18.065Z,34.24
2018-08-08T06:21:18.071Z,33.84
2018-08-08T06:22:18.087Z,34.41
2018-08-08T06:23:18.094Z,33.85
2018-08-08T06:24:18.101Z,32.50
2018-08-08T06:25:18.110Z,32.53
2018-08-08T06:26:18.115Z,31.19
2018-08-08T06:27:18.169Z,29.64
2018-08-08T06:28:18.130Z,28.97
2018-08-08T06:29:18.140Z,29.69
2018-08-08T06:30:18.146Z,31.67
2018-08-08T06:31:18.155Z,31.20
2018-08-08T06:32:18.169Z,30.81
2018-08-08T06:33:18.169Z,29.85
2018-08-08T06:34:18.177Z,29.96
2018-08-08T06:35:18.187Z,29.96
2018-08-08T06:36:18.195Z,30.10
2018-08-08T06:37:18.204Z,31.34
2018-08-08T06:38:18.208Z,32.97
2018-08-08T06:39:18.221Z,34.01
2018-08-08T06:40:18.266Z,33.61
2018-08-08T06:41:18.243Z,34.57
2018-08-08T06:42:18.250Z,36.31
2018-08-08T06:43:18.256Z,36.68
2018-08-08T06:44:18.262Z,37.17
2018-08-08T06:45:18.274Z,35.74
2018-08-08T06:46:18.276Z,34.24
2018-08-08T06:47:18.409Z,32.90
2018-08-08T06:48:18.296Z,31.07
2018-08-08T06:49:18.308Z,30.02
2018-08-08T06:50:18.317Z,29.85
2018-08-08T06:51:18.323Z,29.34
2018-08-08T06:52:18.335Z,29.63
2018-08-08T06:53:18.337Z,29.75
2018-08-08T06:54:18.348Z,29.06
2018-08-08T06:55:18.356Z,29.64
2018-08-08T06:56:18.366Z,29.85
2018-08-08T06:57:18.364Z,28.68
2018-08-08T06:58:18.386Z,27.72
2018-08-08T06:59:18.390Z,28.03
2018-08-08T07:00:18.397Z,28.03
2018-08-08T07:01:18.406Z,27.06
2018-08-08T07:02:18.418Z,27.06
2018-08-08T07:03:18.422Z,27.84
2018-08-08T07:04:18.434Z,27.85
2018-08-08T07:05:18.443Z,27.66
2018-08-08T07:06:18.456Z,27.06
2018-08-08T07:07:18.458Z,26.98
2018-08-08T07:08:18.471Z,26.89
2018-08-08T07:09:18.634Z,25.81
2018-08-08T07:10:18.496Z,26.31
2018-08-08T07:11:18.503Z,27.11
2018-08-08T07:12:18.536Z,25.95
2018-08-08T07:13:18.724Z,25.73
2018-08-08T07:14:18.538Z,25.37
2018-08-08T07:15:18.537Z,24.86
2018-08-08T07:16:18.600Z,25.23
2018-08-08T07:17:18.560Z,25.72
2018-08-08T07:18:18.600Z,25.93
2018-08-08T07:19:18.660Z,25.62
2018-08-08T07:20:18.666Z,25.26
2018-08-08T07:21:18.597Z,24.87
2018-08-08T07:22:18.611Z,24.87
2018-08-08T07:23:18.620Z,24.86
2018-08-08T07:24:18.636Z,25.86
2018-08-08T07:25:18.690Z,24.38
2018-08-08T07:26:18.651Z,25.05
2018-08-08T07:27:18.665Z,25.14
2018-08-08T07:28:18.721Z,25.73
2018-08-08T07:29:18.683Z,25.07
2018-08-08T07:30:18.704Z,24.80
2018-08-08T07:31:18.709Z,23.71
2018-08-08T07:32:18.719Z,23.82
2018-08-08T07:33:18.727Z,24.03
2018-08-08T07:34:18.737Z,22.56
2018-08-08T07:35:18.748Z,22.96
2018-08-08T07:36:18.759Z,22.48
2018-08-08T07:37:18.788Z,22.56
2018-08-08T07:38:18.785Z,22.55
2018-08-08T07:39:18.799Z,22.85
2018-08-08T07:40:18.813Z,23.56
2018-08-08T07:41:18.821Z,21.96
2018-08-08T07:42:18.824Z,22.67
2018-08-08T07:43:18.845Z,22.37
2018-08-08T07:44:18.848Z,22.38
2018-08-08T07:45:18.881Z,22.27
2018-08-08T07:46:18.936Z,22.34
2018-08-08T07:47:18.884Z,23.43
2018-08-08T07:48:18.899Z,23.24
2018-08-08T07:49:18.906Z,22.66
2018-08-08T07:50:18.922Z,22.47
2018-08-08T07:51:18.932Z,22.67
2018-08-08T07:52:18.940Z,22.85
2018-08-08T07:53:18.962Z,23.24
2018-08-08T07:54:19.084Z,23.41
2018-08-08T07:55:18.980Z,23.33
2018-08-08T07:56:19.052Z,23.75
2018-08-08T07:57:19.045Z,23.18
2018-08-08T07:58:19.091Z,22.30
2018-08-08T07:59:19.154Z,21.92
2018-08-08T08:00:19.038Z,21.04
2018-08-08T08:01:19.052Z,21.83
2018-08-08T08:02:19.117Z,21.53
2018-08-08T08:03:19.076Z,21.43
2018-08-08T08:04:19.089Z,21.23
2018-08-08T08:05:19.105Z,22.58
2018-08-08T08:06:19.113Z,22.80
2018-08-08T08:07:19.125Z,22.39
2018-08-08T08:08:19.138Z,22.81
2018-08-08T08:09:19.151Z,21.61
2018-08-08T08:10:19.163Z,22.71
2018-08-08T08:11:19.178Z,21.92
2018-08-08T08:12:19.190Z,21.63
2018-08-08T08:13:19.203Z,21.74
2018-08-08T08:14:19.215Z,21.05
2018-08-08T08:15:19.266Z,21.26
2018-08-08T08:16:19.241Z,21.26
2018-08-08T08:17:20.197Z,21.47
2018-08-08T08:18:19.338Z,20.97
2018-08-08T08:19:19.281Z,20.18
2018-08-08T08:20:19.292Z,20.18
2018-08-08T08:21:19.308Z,20.64
2018-08-08T08:22:19.326Z,21.33
2018-08-08T08:23:19.445Z,20.84
2018-08-08T08:24:19.347Z,21.06
2018-08-08T08:25:19.363Z,20.06
2018-08-08T08:26:19.372Z,20.86
2018-08-08T08:27:19.387Z,20.73
2018-08-08T08:28:19.403Z,21.34
2018-08-08T08:29:19.414Z,20.97
2018-08-08T08:30:19.431Z,20.79
2018-08-08T08:31:19.669Z,20.28
2018-08-08T08:32:19.711Z,20.39
2018-08-08T08:33:19.550Z,20.19
2018-08-08T08:34:19.487Z,20.00
2018-08-08T08:35:19.501Z,19.61
2018-08-08T08:36:19.518Z,19.72
2018-08-08T08:37:19.537Z,19.70
2018-08-08T08:38:19.545Z,19.69
2018-08-08T08:39:19.559Z,19.78
2018-08-08T08:40:19.570Z,20.29
2018-08-08T08:41:19.590Z,20.09
2018-08-08T08:42:19.599Z,19.80
2018-08-08T08:43:19.607Z,19.90
2018-08-08T08:44:19.623Z,19.31
2018-08-08T08:45:19.637Z,20.19
2018-08-08T08:46:19.653Z,20.16
2018-08-08T08:47:19.668Z,21.17
2018-08-08T08:48:19.680Z,20.38
2018-08-08T08:49:19.694Z,20.95
2018-08-08T08:50:19.780Z,20.95
2018-08-08T08:51:19.723Z,21.43
2018-08-08T08:52:19.738Z,21.53
2018-08-08T08:53:19.750Z,22.29
2018-08-08T08:54:19.764Z,23.63
2018-08-08T08:55:20.025Z,25.98
2018-08-08T08:56:19.791Z,26.57
2018-08-08T08:57:19.803Z,26.36
2018-08-08T08:58:19.820Z,25.31
2018-08-08T08:59:19.836Z,24.72
2018-08-08T09:00:19.845Z,23.46
2018-08-08T09:01:19.859Z,23.18
2018-08-08T09:02:19.910Z,22.89
2018-08-08T09:03:19.884Z,23.58
2018-08-08T09:04:19.913Z,22.80
2018-08-08T09:05:19.909Z,22.41
2018-08-08T09:06:19.922Z,21.91
2018-08-08T09:07:19.992Z,23.07
2018-08-08T09:08:19.946Z,23.28
2018-08-08T09:09:19.959Z,23.38
2018-08-08T09:10:19.975Z,23.95
2018-08-08T09:11:19.985Z,24.51
2018-08-08T09:12:20.046Z,25.49
2018-08-08T09:13:20.072Z,26.96
2018-08-08T09:14:20.019Z,26.82
2018-08-08T09:15:20.032Z,27.78
2018-08-08T09:16:20.104Z,28.93
2018-08-08T09:17:20.053Z,28.82
2018-08-08T09:18:20.072Z,29.49
2018-08-08T09:19:20.078Z,30.56
2018-08-08T09:20:20.087Z,31.15
2018-08-08T09:21:20.112Z,31.13
2018-08-08T09:22:20.110Z,31.73
2018-08-08T09:23:20.122Z,32.51
2018-08-08T09:24:20.187Z,31.73
2018-08-08T09:25:20.146Z,32.61
2018-08-08T09:26:20.151Z,32.81
2018-08-08T09:27:20.163Z,32.71
2018-08-08T09:28:20.173Z,32.81
2018-08-08T09:29:20.181Z,32.21
2018-08-08T09:30:20.251Z,32.59
2018-08-08T09:31:20.215Z,32.50
2018-08-08T09:32:20.211Z,32.57
2018-08-08T09:33:20.221Z,32.09
2018-08-08T09:34:20.273Z,33.65
2018-08-08T09:35:20.253Z,32.57
2018-08-08T09:36:20.251Z,33.34
2018-08-08T09:37:20.259Z,33.85
2018-08-08T09:38:20.270Z,33.46
2018-08-08T09:39:20.280Z,33.65
2018-08-08T09:40:20.392Z,32.97
2018-08-08T09:41:20.300Z,33.84
2018-08-08T09:42:20.309Z,33.74
2018-08-08T09:43:20.317Z,33.94
2018-08-08T09:44:20.398Z,33.74
2018-08-08T09:45:20.346Z,33.74
2018-08-08T09:46:20.347Z,33.74
2018-08-08T09:47:20.354Z,33.84
2018-08-08T09:48:20.364Z,33.75
2018-08-08T09:49:20.372Z,34.93
2018-08-08T09:50:20.383Z,33.75
2018-08-08T09:51:20.392Z,33.65
2018-08-08T09:52:20.401Z,33.17
2018-08-08T09:53:20.413Z,33.65
2018-08-08T09:54:20.422Z,33.56
2018-08-08T09:55:20.432Z,34.23
2018-08-08T09:56:20.448Z,33.65
2018-08-08T09:57:20.445Z,34.05
2018-08-08T09:58:20.455Z,34.93
2018-08-08T09:59:20.466Z,33.67
2018-08-08T10:00:20.473Z,33.77
2018-08-08T10:01:20.486Z,33.97
2018-08-08T10:02:20.491Z,33.48
2018-08-08T10:03:20.550Z,33.65
2018-08-08T10:04:20.514Z,33.56
2018-08-08T10:05:20.519Z,33.46
2018-08-08T10:06:20.528Z,33.95
2018-08-08T10:07:20.541Z,33.56
2018-08-08T10:08:20.546Z,33.58
2018-08-08T10:09:20.553Z,33.08
2018-08-08T10:10:20.564Z,32.69
2018-08-08T10:11:20.574Z,32.59
2018-08-08T10:12:20.581Z,32.89
2018-08-08T10:13:20.590Z,33.48
2018-08-08T10:14:20.598Z,33.08
2018-08-08T10:15:20.605Z,33.38
2018-08-08T10:16:20.616Z,33.69
2018-08-08T10:17:20.629Z,33.69
2018-08-08T10:18:20.638Z,33.10
2018-08-08T10:19:20.644Z,32.61
2018-08-08T10:20:20.651Z,32.79
2018-08-08T10:21:20.662Z,33.08
2018-08-08T10:22:20.671Z,32.89
2018-08-08T10:23:20.683Z,32.79
2018-08-08T10:24:20.695Z,33.08
2018-08-08T10:25:20.704Z,32.79
2018-08-08T10:26:20.708Z,32.79
2018-08-08T10:27:20.714Z,32.79
2018-08-08T10:28:20.729Z,32.71
2018-08-08T10:29:20.735Z,32.02
2018-08-08T10:30:20.742Z,32.71
2018-08-08T10:31:20.752Z,32.51
2018-08-08T10:32:20.761Z,32.61
2018-08-08T10:33:20.771Z,31.43
2018-08-08T10:34:20.779Z,32.71
2018-08-08T10:35:20.789Z,32.81
2018-08-08T10:36:20.799Z,31.53
2018-08-08T10:37:20.806Z,32.21
2018-08-08T10:38:20.814Z,31.33
2018-08-08T10:39:20.824Z,31.43
2018-08-08T10:40:20.837Z,32.71
2018-08-08T10:41:20.842Z,31.73
2018-08-08T10:42:20.851Z,31.33
2018-08-08T10:43:20.864Z,32.81
2018-08-08T10:44:20.869Z,32.81
2018-08-08T10:45:20.878Z,32.14
2018-08-08T10:46:20.885Z,31.74
2018-08-08T10:47:20.898Z,31.56
2018-08-08T10:48:20.903Z,30.40
2018-08-08T10:49:20.914Z,31.09
2018-08-08T10:50:20.924Z,30.19
2018-08-08T10:51:20.932Z,32.38
2018-08-08T10:52:20.940Z,31.49
2018-08-08T10:53:20.952Z,31.10
2018-08-08T10:54:20.958Z,30.60
2018-08-08T10:55:20.989Z,30.21
2018-08-08T10:56:21.016Z,29.93
2018-08-08T10:57:20.985Z,30.43
2018-08-08T10:58:20.998Z,29.74
2018-08-08T10:59:21.005Z,29.05
2018-08-08T11:00:21.014Z,30.31
2018-08-08T11:01:21.022Z,30.11
2018-08-08T11:02:21.032Z,30.02
2018-08-08T11:03:21.044Z,29.71
2018-08-08T11:04:21.054Z,28.33
2018-08-08T11:05:21.060Z,29.41
2018-08-08T11:06:21.072Z,30.30
2018-08-08T11:07:21.080Z,31.38
2018-08-08T11:08:21.089Z,30.30
2018-08-08T11:09:21.104Z,28.82
2018-08-08T11:10:21.108Z,29.02
2018-08-08T11:11:21.115Z,28.72
2018-08-08T11:12:21.125Z,28.42
2018-08-08T11:13:21.135Z,28.63
2018-08-08T11:14:21.147Z,29.61
2018-08-08T11:15:21.152Z,28.52
2018-08-08T11:16:21.169Z,27.45
2018-08-08T11:17:21.178Z,28.05
2018-08-08T11:18:21.181Z,27.44
2018-08-08T11:19:21.189Z,27.26
2018-08-08T11:20:21.197Z,27.45
2018-08-08T11:21:21.214Z,28.13
2018-08-08T11:22:21.224Z,28.14
2018-08-08T11:23:21.231Z,27.56
2018-08-08T11:24:21.236Z,27.45
2018-08-08T11:25:21.249Z,27.85
2018-08-08T11:26:21.258Z,26.97
2018-08-08T11:27:21.265Z,26.47
2018-08-08T11:28:21.278Z,26.97
2018-08-08T11:29:21.285Z,27.17
2018-08-08T11:30:21.311Z,26.57
2018-08-08T11:31:21.303Z,27.36
2018-08-08T11:32:21.319Z,28.05
2018-08-08T11:33:21.325Z,26.56
2018-08-08T11:34:21.336Z,27.16
2018-08-08T11:35:21.343Z,27.45
2018-08-08T11:36:21.349Z,26.87
2018-08-08T11:37:21.360Z,27.85
2018-08-08T11:38:21.371Z,27.74
2018-08-08T11:39:21.381Z,27.54
2018-08-08T11:40:21.391Z,27.36
2018-08-08T11:41:21.411Z,27.84
2018-08-08T11:42:21.406Z,28.54
2018-08-08T11:43:21.416Z,27.45
2018-08-08T11:44:21.423Z,27.95
2018-08-08T11:45:21.431Z,27.76
2018-08-08T11:46:21.444Z,28.16
2018-08-08T11:47:21.455Z,27.17
2018-08-08T11:48:21.467Z,27.17
2018-08-08T11:49:21.476Z,27.08
2018-08-08T11:50:21.482Z,27.06
2018-08-08T11:51:21.492Z,27.76
2018-08-08T11:52:21.504Z,27.47
2018-08-08T11:53:21.510Z,27.67
2018-08-08T11:54:21.522Z,26.78
2018-08-08T11:55:21.530Z,27.37
2018-08-08T11:56:21.543Z,27.57
2018-08-08T11:57:21.549Z,27.08
2018-08-08T11:58:21.558Z,26.70
2018-08-08T11:59:21.569Z,27.09
2018-08-08T12:00:21.581Z,27.48
2018-08-08T12:01:21.587Z,27.58
2018-08-08T12:02:21.596Z,27.39
2018-08-08T12:03:21.614Z,26.70
2018-08-08T12:04:21.618Z,27.68
2018-08-08T12:05:21.629Z,27.68
2018-08-08T12:06:21.635Z,27.76
2018-08-08T12:07:21.650Z,27.67
2018-08-08T12:08:21.654Z,28.16
2018-08-08T12:09:21.669Z,26.88
2018-08-08T12:10:21.674Z,27.48
2018-08-08T12:11:21.688Z,26.48
2018-08-08T12:12:21.693Z,27.48
2018-08-08T12:13:21.700Z,26.99
2018-08-08T12:14:21.713Z,25.71
2018-08-08T12:15:21.723Z,25.51
2018-08-08T12:16:21.730Z,26.01
2018-08-08T12:17:21.741Z,26.31
2018-08-08T12:18:21.753Z,27.00
2018-08-08T12:19:21.761Z,25.92
2018-08-08T12:20:21.767Z,25.33
2018-08-08T12:21:21.781Z,24.44
2018-08-08T12:22:21.792Z,25.92
2018-08-08T12:23:21.797Z,26.02
2018-08-08T12:24:21.807Z,25.92
2018-08-08T12:25:21.820Z,25.82
2018-08-08T12:26:21.830Z,25.33
2018-08-08T12:27:21.836Z,26.21
2018-08-08T12:28:21.846Z,25.13
2018-08-08T12:29:21.855Z,24.84
2018-08-08T12:30:21.870Z,25.62
2018-08-08T12:31:21.922Z,25.23
2018-08-08T12:32:21.891Z,25.52
2018-08-08T12:33:21.897Z,25.92
2018-08-08T12:34:21.959Z,25.14
2018-08-08T12:35:22.020Z,25.14
2018-08-08T12:36:21.925Z,25.14
2018-08-08T12:37:21.933Z,25.34
2018-08-08T12:38:21.944Z,25.14
2018-08-08T12:39:22.028Z,25.44
2018-08-08T12:40:21.979Z,25.83
2018-08-08T12:41:21.974Z,25.62
2018-08-08T12:42:22.016Z,24.44
2018-08-08T12:43:21.993Z,25.92
2018-08-08T12:44:22.002Z,25.13
2018-08-08T12:45:22.014Z,25.51
2018-08-08T12:46:22.022Z,26.10
2018-08-08T12:47:22.035Z,26.30
2018-08-08T12:48:22.041Z,25.61
2018-08-08T12:49:22.049Z,25.02
2018-08-08T12:50:22.060Z,25.71
2018-08-08T12:51:22.071Z,26.47
2018-08-08T12:52:22.085Z,25.78